createdAt,value
2022-10-25T00:01:36.949Z,99593.88
2022-10-25T00:04:04.553Z,99584.22
2022-10-25T00:06:31.916Z,99589.81
2022-10-25T00:09:00.873Z,99595.09
2022-10-25T00:11:30.121Z,99588.16
2022-10-25T00:14:00.032Z,99577.13
2022-10-25T00:16:28.945Z,99584.03
2022-10-25T00:18:56.304Z,99589.69
2022-10-25T00:21:24.120Z,99597.41
2022-10-25T00:23:51.964Z,99598.00
2022-10-25T00:26:21.226Z,99602.97
2022-10-25T00:28:48.673Z,99600.16
2022-10-25T00:31:17.344Z,99604.03
2022-10-25T00:33:45.433Z,99613.91
2022-10-25T00:36:14.117Z,99593.34
2022-10-25T00:38:41.466Z,99607.34
2022-10-25T00:41:09.888Z,99598.50
2022-10-25T00:43:40.441Z,99604.03
2022-10-25T00:46:12.279Z,99597.19
2022-10-25T00:48:39.814Z,99603.75
2022-10-25T00:51:07.265Z,99606.09
2022-10-25T00:53:36.249Z,99615.53
2022-10-25T00:56:05.292Z,99610.59
2022-10-25T00:58:35.376Z,99606.28
2022-10-25T01:01:05.442Z,99611.59
2022-10-25T01:03:32.948Z,99608.38
2022-10-25T01:06:00.671Z,99618.03
2022-10-25T01:08:28.070Z,99617.44
2022-10-25T01:10:55.393Z,99616.78
2022-10-25T01:13:22.932Z,99614.75
2022-10-25T01:15:58.769Z,99613.72
2022-10-25T01:18:35.537Z,99613.91
2022-10-25T01:21:31.945Z,99616.00
2022-10-25T01:24:16.076Z,99611.47
2022-10-25T01:27:16.782Z,99609.22
2022-10-25T01:30:12.221Z,99614.16
2022-10-25T01:32:43.420Z,99613.53
2022-10-25T01:35:17.457Z,99605.31
2022-10-25T01:37:54.798Z,99604.69
2022-10-25T01:40:24.871Z,99611.47
2022-10-25T01:42:59.559Z,99610.06
2022-10-25T01:45:29.547Z,99614.59
2022-10-25T01:48:00.785Z,99613.78
2022-10-25T01:50:30.892Z,99617.88
2022-10-25T01:52:58.270Z,99621.81
2022-10-25T01:55:28.851Z,99619.28
2022-10-25T01:58:08.788Z,99620.38
2022-10-25T02:00:42.214Z,99621.56
2022-10-25T02:03:22.484Z,99620.09
2022-10-25T02:06:01.036Z,99628.34
2022-10-25T02:08:34.453Z,99627.06
2022-10-25T02:11:07.378Z,99636.13
2022-10-25T02:13:43.780Z,99625.91
2022-10-25T02:16:13.340Z,99630.03
2022-10-25T02:18:45.210Z,99625.50
2022-10-25T02:21:13.560Z,99630.03
2022-10-25T02:23:41.521Z,99625.72
2022-10-25T02:26:10.674Z,99625.91
2022-10-25T02:28:39.350Z,99633.06
2022-10-25T02:31:09.621Z,99630.06
2022-10-25T02:33:39.196Z,99631.28
2022-10-25T02:36:14.552Z,99632.72
2022-10-25T02:38:42.800Z,99632.88
2022-10-25T02:41:10.357Z,99628.59
2022-10-25T02:43:37.709Z,99628.59
2022-10-25T02:46:08.474Z,99633.13
2022-10-25T02:48:36.080Z,99624.06
2022-10-25T02:51:03.633Z,99638.22
2022-10-25T02:53:33.059Z,99632.53
2022-10-25T02:56:01.752Z,99631.88
2022-10-25T02:58:31.578Z,99636.41
2022-10-25T03:00:59.621Z,99631.28
2022-10-25T03:03:27.582Z,99633.34
2022-10-25T03:05:55.099Z,99632.94
2022-10-25T03:08:22.694Z,99645.06
2022-10-25T03:10:51.706Z,99645.09
2022-10-25T03:13:19.092Z,99642.81
2022-10-25T03:15:46.825Z,99648.16
2022-10-25T03:18:15.184Z,99646.28
2022-10-25T03:20:42.842Z,99653.09
2022-10-25T03:23:10.462Z,99647.53
2022-10-25T03:25:37.968Z,99651.66
2022-10-25T03:28:07.134Z,99656.97
2022-10-25T03:30:35.209Z,99658.41
2022-10-25T03:33:02.767Z,99663.19
2022-10-25T03:35:30.138Z,99665.59
2022-10-25T03:37:57.465Z,99665.59
2022-10-25T03:40:24.872Z,99664.63
2022-10-25T03:42:52.272Z,99667.88
2022-10-25T03:45:21.217Z,99669.09
2022-10-25T03:47:48.856Z,99681.84
2022-10-25T03:50:16.565Z,99676.91
2022-10-25T03:52:43.956Z,99682.69
2022-10-25T03:55:11.434Z,99677.75
2022-10-25T03:57:38.757Z,99683.31
2022-10-25T04:00:06.810Z,99689.91
2022-10-25T04:02:40.340Z,99689.06
2022-10-25T04:05:08.341Z,99684.38
2022-10-25T04:07:35.655Z,99690.69
2022-10-25T04:10:03.049Z,99702.25
2022-10-25T04:12:30.390Z,99705.28
2022-10-25T04:14:57.749Z,99702.38
2022-10-25T04:17:25.124Z,99708.19
2022-10-25T04:19:53.773Z,99701.16
2022-10-25T04:22:21.093Z,99698.31
2022-10-25T04:24:48.416Z,99702.38
2022-10-25T04:27:15.751Z,99700.59
2022-10-25T04:29:43.082Z,99706.16
2022-10-25T04:32:10.561Z,99707.53
2022-10-25T04:34:37.966Z,99706.56
2022-10-25T04:37:06.648Z,99701.81
2022-10-25T04:39:34.085Z,99705.31
2022-10-25T04:42:01.436Z,99703.25
2022-10-25T04:44:31.088Z,99704.22
2022-10-25T04:46:58.397Z,99707.13
2022-10-25T04:49:25.757Z,99702.75
2022-10-25T04:51:53.084Z,99706.84
2022-10-25T04:54:21.717Z,99697.97
2022-10-25T04:56:49.047Z,99696.19
2022-10-25T04:59:16.372Z,99704.31
2022-10-25T05:01:43.792Z,99707.84
2022-10-25T05:04:11.248Z,99703.41
2022-10-25T05:06:38.593Z,99705.03
2022-10-25T05:09:05.933Z,99714.28
2022-10-25T05:11:34.619Z,99716.53
2022-10-25T05:14:02.012Z,99726.28
2022-10-25T05:16:29.415Z,99731.03
2022-10-25T05:18:56.730Z,99725.28
2022-10-25T05:21:28.281Z,99724.03
2022-10-25T05:24:00.507Z,99732.38
2022-10-25T05:26:30.266Z,99728.50
2022-10-25T05:28:59.263Z,99731.75
2022-10-25T05:31:27.701Z,99734.44
2022-10-25T05:33:57.600Z,99735.47
2022-10-25T05:36:25.249Z,99737.34
2022-10-25T05:38:52.853Z,99746.72
2022-10-25T05:41:20.483Z,99757.22
2022-10-25T05:43:47.930Z,99752.09
2022-10-25T05:46:21.703Z,99750.59
2022-10-25T05:48:50.037Z,99745.88
2022-10-25T05:51:33.343Z,99750.78
2022-10-25T05:54:02.569Z,99749.97
2022-10-25T05:56:31.291Z,99752.28
2022-10-25T05:58:58.876Z,99750.38
2022-10-25T06:01:27.813Z,99761.47
2022-10-25T06:03:56.342Z,99764.13
2022-10-25T06:06:24.320Z,99765.34
2022-10-25T06:08:56.743Z,99764.38
2022-10-25T06:11:24.735Z,99768.59
2022-10-25T06:13:52.072Z,99774.75
2022-10-25T06:16:20.706Z,99772.50
2022-10-25T06:18:49.391Z,99767.13
2022-10-25T06:21:18.453Z,99778.00
2022-10-25T06:23:46.400Z,99777.19
2022-10-25T06:26:15.654Z,99783.13
2022-10-25T06:28:43.320Z,99791.97
2022-10-25T06:31:12.297Z,99791.59
2022-10-25T06:33:39.899Z,99798.16
2022-10-25T06:36:13.174Z,99799.06
2022-10-25T06:38:40.753Z,99803.38
2022-10-25T06:41:11.204Z,99804.72
2022-10-25T06:43:38.857Z,99810.69
2022-10-25T06:46:07.229Z,99813.94
2022-10-25T06:48:34.676Z,99817.88
2022-10-25T06:51:02.987Z,99821.81
2022-10-25T06:53:31.929Z,99819.34
2022-10-25T06:56:04.724Z,99823.72
2022-10-25T06:58:34.422Z,99834.13
2022-10-25T07:01:03.400Z,99833.25
2022-10-25T07:03:34.941Z,99842.66
2022-10-25T07:06:03.321Z,99844.09
2022-10-25T07:08:31.976Z,99854.06
2022-10-25T07:10:59.575Z,99855.19
2022-10-25T07:13:27.034Z,99857.13
2022-10-25T07:15:54.485Z,99855.53
2022-10-25T07:18:21.840Z,99862.31
2022-10-25T07:20:50.449Z,99867.84
2022-10-25T07:25:52.860Z,99874.88
2022-10-25T07:28:20.245Z,99877.72
2022-10-25T07:30:48.353Z,99880.00
2022-10-25T07:33:16.447Z,99889.47
2022-10-25T07:35:58.692Z,99892.81
2022-10-25T07:38:33.245Z,99893.38
2022-10-25T07:41:01.983Z,99893.81
2022-10-25T07:43:30.121Z,99898.59
2022-10-25T08:26:14.353Z,99926.38
2022-10-25T08:28:41.688Z,99934.88
2022-10-25T08:31:10.405Z,99923.56
2022-10-25T08:33:37.952Z,99919.59
2022-10-25T08:36:05.659Z,99923.53
2022-10-25T08:38:33.049Z,99932.81
2022-10-25T08:41:06.902Z,99930.34
2022-10-25T08:43:50.932Z,99931.78
2022-10-25T08:46:21.364Z,99930.34
2022-10-25T08:48:52.428Z,99937.13
2022-10-25T08:51:27.744Z,99943.53
2022-10-25T09:28:25.437Z,99957.28
2022-10-25T09:30:54.000Z,99960.63
2022-10-25T09:33:28.219Z,99956.44
2022-10-25T09:35:56.309Z,99952.22
2022-10-25T09:38:29.174Z,99966.94
2022-10-25T09:46:14.893Z,99972.97
2022-10-25T09:48:49.309Z,99978.78
2022-10-25T09:51:20.304Z,99983.50
2022-10-25T09:53:48.049Z,99984.28
2022-10-25T09:56:17.236Z,99992.16
2022-10-25T09:58:47.017Z,99992.09
2022-10-25T10:01:19.037Z,99993.78
2022-10-25T10:03:52.293Z,99990.31
2022-10-25T10:06:24.029Z,99987.16
2022-10-25T10:08:52.867Z,99991.75
2022-10-25T10:11:21.076Z,99986.91
2022-10-25T10:13:49.953Z,99996.72
2022-10-25T10:16:21.864Z,99992.63
2022-10-25T10:18:50.694Z,99990.75
2022-10-25T10:21:20.082Z,99993.44
2022-10-25T10:23:53.354Z,99999.47
2022-10-25T10:26:24.773Z,100009.53
2022-10-25T10:29:07.767Z,100016.09
2022-10-25T10:31:37.864Z,100018.63
2022-10-25T10:34:08.343Z,100017.19
2022-10-25T10:36:36.246Z,100009.56
2022-10-25T10:39:21.035Z,100012.44
2022-10-25T10:42:02.903Z,99999.38
2022-10-25T10:44:34.217Z,99993.97
2022-10-25T10:50:25.716Z,100011.75
2022-10-25T10:52:59.795Z,100012.09
2022-10-25T10:55:30.853Z,100015.69
2022-10-25T10:58:03.732Z,100023.38
2022-10-25T11:00:33.085Z,100018.59
2022-10-25T11:03:00.715Z,100024.69
2022-10-25T11:05:30.888Z,100038.50
2022-10-25T11:08:00.009Z,100045.31
2022-10-25T11:12:16.704Z,100045.19
2022-10-25T11:14:44.081Z,100050.66
2022-10-25T11:17:14.693Z,100054.69
2022-10-25T11:20:01.810Z,100059.41
2022-10-25T11:25:34.952Z,100060.31
2022-10-25T11:28:15.581Z,100053.66
2022-10-25T11:30:50.435Z,100051.63
2022-10-25T11:33:28.119Z,100051.59
2022-10-25T11:36:03.820Z,100052.06
2022-10-25T11:38:41.658Z,100044.44
2022-10-25T11:41:19.112Z,100045.81
2022-10-25T11:43:57.223Z,100052.59
2022-10-25T11:46:31.493Z,100056.66
2022-10-25T11:49:13.749Z,100052.13
2022-10-25T11:51:46.937Z,100053.84
2022-10-25T11:54:21.351Z,100049.56
2022-10-25T11:56:55.545Z,100056.38
2022-10-25T11:59:26.260Z,100063.97
2022-10-25T12:02:00.277Z,100067.53
2022-10-25T12:04:45.747Z,100059.06
2022-10-25T12:07:16.921Z,100054.59
2022-10-25T12:09:52.237Z,100048.13
2022-10-25T12:12:23.250Z,100050.19
2022-10-25T12:14:55.629Z,100052.88
2022-10-25T12:17:25.940Z,100048.47
2022-10-25T12:19:55.603Z,100055.81
2022-10-25T12:22:25.821Z,100059.97
2022-10-25T12:24:57.585Z,100051.81
2022-10-25T12:27:25.652Z,100053.19
2022-10-25T12:29:58.121Z,100056.69
2022-10-25T12:32:29.940Z,100065.28
2022-10-25T12:34:58.698Z,100058.72
2022-10-25T12:37:31.761Z,100055.13
2022-10-25T12:39:59.246Z,100057.28
2022-10-25T12:42:30.697Z,100063.13
2022-10-25T12:45:12.064Z,100062.31
2022-10-25T12:47:47.573Z,100052.34
2022-10-25T12:50:41.720Z,100066.78
2022-10-25T12:53:32.698Z,100064.69
2022-10-25T12:56:03.357Z,100062.88
2022-10-25T12:58:52.685Z,100066.59
2022-10-25T13:01:34.977Z,100067.50
2022-10-25T13:04:17.614Z,100058.53
2022-10-25T13:06:45.665Z,100057.00
2022-10-25T13:09:14.780Z,100047.06
2022-10-25T13:11:44.153Z,100057.56
2022-10-25T13:14:20.542Z,100060.41
2022-10-25T13:16:49.280Z,100050.91
2022-10-25T13:19:49.366Z,100060.69
2022-10-25T13:22:39.456Z,100060.72
2022-10-25T13:25:17.302Z,100059.75
2022-10-25T13:28:17.905Z,100060.19
2022-10-25T13:30:45.297Z,100060.38
2022-10-25T13:33:33.266Z,100063.09
2022-10-25T13:36:05.177Z,100061.41
2022-10-25T13:38:39.011Z,100067.38
2022-10-25T13:41:13.929Z,100061.16
2022-10-25T13:44:01.377Z,100067.72
2022-10-25T13:46:32.516Z,100066.00
2022-10-25T13:49:02.355Z,100069.81
2022-10-25T13:51:31.211Z,100073.03
2022-10-25T13:54:02.670Z,100077.41
2022-10-25T13:56:37.961Z,100069.50
2022-10-25T13:59:05.454Z,100066.66
2022-10-25T14:01:56.808Z,100070.00
2022-10-25T14:04:44.005Z,100076.75
2022-10-25T14:07:46.621Z,100074.03
2022-10-25T14:10:24.145Z,100074.19
2022-10-25T14:12:53.441Z,100074.84
2022-10-25T14:15:31.425Z,100063.22
2022-10-25T14:17:59.213Z,100064.72
2022-10-25T14:20:29.690Z,100064.75
2022-10-25T14:23:00.194Z,100065.16
2022-10-25T14:25:34.084Z,100069.16
2022-10-25T14:28:06.689Z,100067.25
2022-10-25T14:30:38.049Z,100071.72
2022-10-25T14:33:07.436Z,100068.28
2022-10-25T14:35:39.153Z,100069.44
2022-10-25T14:38:15.553Z,100069.28
2022-10-25T14:40:42.909Z,100071.22
2022-10-25T14:43:22.486Z,100080.38
2022-10-25T14:45:57.017Z,100079.97
2022-10-25T14:48:24.529Z,100072.16
2022-10-25T14:50:53.781Z,100074.75
2022-10-25T14:53:21.315Z,100078.56
2022-10-25T14:55:53.628Z,100072.50
2022-10-25T14:58:21.641Z,100072.19
2022-10-25T15:00:54.302Z,100079.88
2022-10-25T15:03:22.022Z,100069.56
2022-10-25T15:05:49.479Z,100068.53
2022-10-25T15:08:21.186Z,100075.97
2022-10-25T15:10:51.233Z,100074.31
2022-10-25T15:13:22.921Z,100074.09
2022-10-25T15:15:51.834Z,100066.03
2022-10-25T15:18:28.535Z,100067.72
2022-10-25T15:21:06.479Z,100074.31
2022-10-25T15:23:35.622Z,100070.41
2022-10-25T15:26:26.998Z,100071.41
2022-10-25T15:28:55.857Z,100065.22
2022-10-25T15:31:24.994Z,100060.47
2022-10-25T15:33:59.970Z,100055.13
2022-10-25T15:36:28.913Z,100052.00
2022-10-25T15:39:11.432Z,100064.81
2022-10-25T15:41:40.189Z,100062.75
2022-10-25T15:44:07.575Z,100058.84
2022-10-25T15:46:37.794Z,100060.09
2022-10-25T15:49:08.087Z,100068.94
2022-10-25T15:51:37.717Z,100067.47
2022-10-25T15:54:06.684Z,100061.88
2022-10-25T15:56:34.101Z,100062.91
2022-10-25T15:59:02.621Z,100061.47
2022-10-25T16:01:30.374Z,100065.94
2022-10-25T16:03:57.805Z,100060.91
2022-10-25T16:06:26.888Z,100066.03
2022-10-25T16:08:54.298Z,100059.59
2022-10-25T16:11:22.957Z,100070.44
2022-10-25T16:13:52.805Z,100064.00
2022-10-25T16:16:39.413Z,100066.91
2022-10-25T16:19:07.944Z,100056.56
2022-10-25T16:21:35.304Z,100069.47
2022-10-25T16:24:02.669Z,100067.09
2022-10-25T16:26:35.205Z,100067.44
2022-10-25T16:29:02.701Z,100067.44
2022-10-25T16:31:30.072Z,100075.63
2022-10-25T16:33:57.410Z,100072.09
2022-10-25T16:36:24.797Z,100071.41
2022-10-25T16:38:52.213Z,100067.72
2022-10-25T16:41:24.912Z,100068.84
2022-10-25T16:43:53.625Z,100070.38
2022-10-25T16:46:21.045Z,100077.09
2022-10-25T16:48:49.159Z,100076.72
2022-10-25T16:51:18.112Z,100078.41
2022-10-25T16:53:46.981Z,100081.56
2022-10-25T16:56:14.979Z,100072.88
2022-10-25T16:58:42.901Z,100077.13
2022-10-25T17:01:21.981Z,100076.72
2022-10-25T17:03:49.959Z,100070.84
2022-10-25T17:06:39.764Z,100064.88
2022-10-25T17:09:05.254Z,100073.25
2022-10-25T17:11:32.589Z,100070.09
2022-10-25T17:14:00.026Z,100073.16
2022-10-25T17:16:28.677Z,100069.84
2022-10-25T17:18:56.193Z,100073.78
2022-10-25T17:21:23.767Z,100065.97
2022-10-25T17:23:51.169Z,100071.03
2022-10-25T17:26:18.576Z,100074.81
2022-10-25T17:28:45.912Z,100069.63
2022-10-25T17:31:15.696Z,100074.06
2022-10-25T17:33:44.678Z,100079.38
2022-10-25T17:36:13.866Z,100079.06
2022-10-25T17:38:41.304Z,100073.00
2022-10-25T17:41:10.545Z,100074.47
2022-10-25T17:43:38.800Z,100069.31
2022-10-25T17:46:10.256Z,100077.84
2022-10-25T17:48:37.715Z,100079.72
2022-10-25T17:51:08.289Z,100078.03
2022-10-25T17:53:36.108Z,100076.28
2022-10-25T17:56:10.933Z,100081.28
2022-10-25T17:58:38.338Z,100086.56
2022-10-25T18:01:06.256Z,100083.41
2022-10-25T18:03:33.749Z,100087.59
2022-10-25T18:06:01.413Z,100083.53
2022-10-25T18:08:30.244Z,100085.06
2022-10-25T18:10:57.679Z,100092.16
2022-10-25T18:13:26.899Z,100087.19
2022-10-25T18:15:54.401Z,100089.63
2022-10-25T18:18:21.859Z,100092.16
2022-10-25T18:20:51.518Z,100087.50
2022-10-25T18:23:19.070Z,100085.75
2022-10-25T18:25:52.771Z,100084.59
2022-10-25T18:28:20.303Z,100084.19
2022-10-25T18:30:51.978Z,100097.28
2022-10-25T18:33:23.673Z,100100.56
2022-10-25T18:35:58.054Z,100098.78
2022-10-25T18:38:25.865Z,100101.53
2022-10-25T18:40:55.022Z,100100.13
2022-10-25T18:43:23.440Z,100103.06
2022-10-25T18:45:51.782Z,100094.78
2022-10-25T18:48:19.889Z,100095.69
2022-10-25T18:50:48.787Z,100096.97
2022-10-25T18:53:19.119Z,100097.72
2022-10-25T18:55:48.689Z,100096.72
2022-10-25T18:58:19.484Z,100099.03
2022-10-25T19:00:49.407Z,100089.94
2022-10-25T19:03:18.829Z,100089.56
2022-10-25T19:05:48.323Z,100090.19
2022-10-25T19:08:17.913Z,100092.00
2022-10-25T19:10:47.696Z,100091.34
2022-10-25T19:13:20.439Z,100078.03
2022-10-25T19:15:50.415Z,100071.22
2022-10-25T19:18:20.158Z,100077.41
2022-10-25T19:20:49.691Z,100079.63
2022-10-25T19:23:19.466Z,100079.63
2022-10-25T19:25:49.099Z,100074.66
2022-10-25T19:28:20.113Z,100071.09
2022-10-25T19:30:49.744Z,100068.97
2022-10-25T19:33:19.306Z,100076.84
2022-10-25T19:35:48.898Z,100075.59
2022-10-25T19:38:21.901Z,100080.25
2022-10-25T19:40:54.185Z,100080.44
2022-10-25T19:43:25.633Z,100078.56
2022-10-25T19:45:58.766Z,100074.63
2022-10-25T19:48:29.065Z,100066.13
2022-10-25T19:50:58.694Z,100075.16
2022-10-25T19:53:28.194Z,100065.91
2022-10-25T19:56:01.087Z,100071.88
2022-10-25T19:58:32.090Z,100072.22
2022-10-25T20:01:07.135Z,100075.03
2022-10-25T20:03:36.925Z,100075.47
2022-10-25T20:06:09.281Z,100075.53
2022-10-25T20:08:40.598Z,100075.84
2022-10-25T20:11:11.662Z,100072.78
2022-10-25T20:13:42.929Z,100080.97
2022-10-25T20:16:17.375Z,100077.34
2022-10-25T20:18:46.700Z,100074.69
2022-10-25T20:21:17.253Z,100077.72
2022-10-25T20:23:50.542Z,100073.28
2022-10-25T20:26:22.120Z,100071.31
2022-10-25T20:28:54.258Z,100079.38
2022-10-25T20:31:24.541Z,100080.31
2022-10-25T20:33:54.164Z,100074.28
2022-10-25T20:36:23.753Z,100079.44
2022-10-25T20:38:53.331Z,100066.13
2022-10-25T20:41:23.834Z,100073.28
2022-10-25T20:43:55.222Z,100071.25
2022-10-25T20:46:25.030Z,100083.34
2022-10-25T20:48:53.524Z,100086.53
2022-10-25T20:51:21.286Z,100081.34
2022-10-25T20:53:54.551Z,100085.84
2022-10-25T20:56:22.619Z,100087.16
2022-10-25T20:58:50.106Z,100084.16
2022-10-25T21:01:19.452Z,100084.34
2022-10-25T21:03:47.025Z,100083.72
2022-10-25T21:06:14.517Z,100081.91
2022-10-25T21:08:42.091Z,100083.75
2022-10-25T21:11:12.685Z,100083.75
2022-10-25T21:13:40.521Z,100080.72
2022-10-25T21:16:08.597Z,100078.75
2022-10-25T21:18:37.555Z,100074.06
2022-10-25T21:21:06.883Z,100073.78
2022-10-25T21:23:34.333Z,100072.09
2022-10-25T21:26:02.878Z,100068.59
2022-10-25T21:28:33.376Z,100065.88
2022-10-25T21:31:01.697Z,100061.19
2022-10-25T21:33:31.022Z,100069.38
2022-10-25T21:36:05.054Z,100065.63
2022-10-25T21:38:32.443Z,100061.34
2022-10-25T21:41:07.380Z,100059.88
2022-10-25T21:43:34.777Z,100055.88
2022-10-25T21:46:05.146Z,100063.38
2022-10-25T21:48:32.558Z,100055.25
2022-10-25T21:50:59.878Z,100054.13
2022-10-25T21:53:28.559Z,100052.03
2022-10-25T21:56:07.096Z,100050.66
2022-10-25T21:58:34.518Z,100051.47
2022-10-25T22:01:01.879Z,100042.84
2022-10-25T22:03:30.544Z,100052.38
2022-10-25T22:05:58.180Z,100043.13
2022-10-25T22:08:25.537Z,100050.78
2022-10-25T22:13:31.657Z,100051.16
2022-10-25T22:16:00.428Z,100053.50
2022-10-25T22:18:28.149Z,100049.69
2022-10-25T22:20:57.256Z,100049.53
2022-10-25T22:23:26.305Z,100061.66
2022-10-25T22:25:53.864Z,100059.19
2022-10-25T22:28:22.570Z,100056.66
2022-10-25T22:30:50.062Z,100054.69
2022-10-25T22:33:17.435Z,100054.34
2022-10-25T22:35:44.754Z,100049.19
2022-10-25T22:38:12.093Z,100050.69
2022-10-25T22:40:39.426Z,100056.50
2022-10-25T22:43:06.757Z,100051.16
2022-10-25T22:45:36.295Z,100056.34
2022-10-25T22:48:03.667Z,100052.16
2022-10-25T22:50:31.009Z,100050.88
2022-10-25T22:52:58.351Z,100054.00
2022-10-25T22:55:25.692Z,100054.50
2022-10-25T22:57:54.210Z,100053.63
2022-10-25T23:00:21.646Z,100051.50
2022-10-25T23:02:50.566Z,100046.69
2022-10-25T23:05:18.082Z,100047.00
2022-10-25T23:07:45.425Z,100048.31
2022-10-25T23:10:14.347Z,100047.66
2022-10-25T23:12:41.729Z,100050.28
2022-10-25T23:15:09.570Z,100053.22
2022-10-25T23:17:36.948Z,100047.13
2022-10-25T23:20:06.757Z,100051.41
2022-10-25T23:22:34.193Z,100047.13
2022-10-25T23:25:01.567Z,100053.22
2022-10-25T23:27:29.060Z,100046.13
2022-10-25T23:29:56.413Z,100044.94
2022-10-25T23:32:23.797Z,100043.31
2022-10-25T23:34:52.596Z,100040.78
2022-10-25T23:37:23.721Z,100040.97
2022-10-25T23:39:53.884Z,100029.53
2022-10-25T23:42:21.212Z,100037.81
2022-10-25T23:44:48.514Z,100046.09
2022-10-25T23:47:15.845Z,100040.28
2022-10-25T23:49:43.157Z,100039.28
2022-10-25T23:52:10.490Z,100039.31
2022-10-25T23:54:39.133Z,100035.03
2022-10-25T23:57:06.468Z,100031.56
2022-10-25T23:59:33.818Z,100031.53
